Time;durP1;ratioP1;P1;durP2;ratioP2;P2;SDS_P1;SDS_P2;PMS_P1;PMS_P2;Temp;Humidity;BMP_temperature;BMP_pressure;BME280_temperature;BME280_humidity;BME280_pressure;Samples;Min_cycle;Max_cycle;Signal;HPM_P1;HPM_P2
2021/04/12 00:01:26;;;;;;;2.37;1.63;;;;;;;3.64;77.93;101184.56;5013712;28;20217;-78
2021/04/12 00:04:00;;;;;;;4.07;1.73;;;;;;;3.65;77.39;101188.06;5001670;28;20210;-78
2021/04/12 00:06:31;;;;;;;3.33;1.70;;;;;;;3.65;78.17;101188.06;5006940;28;20285;-78
2021/04/12 00:09:03;;;;;;;3.33;1.80;;;;;;;3.65;77.27;101182.78;5023943;28;20213;-78
2021/04/12 00:11:36;;;;;;;2.53;1.90;;;;;;;3.65;78.27;101180.16;5015300;28;20207;-78
2021/04/12 00:14:10;;;;;;;2.80;1.90;;;;;;;3.65;77.87;101175.75;5025906;28;20561;-78
2021/04/12 00:16:42;;;;;;;2.73;2.03;;;;;;;3.66;77.45;101176.63;5029282;28;20601;-78
2021/04/12 00:19:16;;;;;;;5.77;2.20;;;;;;;3.64;77.88;101175.78;5034440;28;20276;-78
2021/04/12 00:21:50;;;;;;;3.33;1.90;;;;;;;3.64;77.46;101183.69;4999611;28;20199;-78
2021/04/12 00:24:21;;;;;;;9.00;2.40;;;;;;;3.64;77.63;101192.47;5012786;28;20680;-78
2021/04/12 00:26:54;;;;;;;2.93;2.13;;;;;;;3.64;78.33;101191.59;5015131;28;20617;-78
2021/04/12 00:29:26;;;;;;;4.00;2.50;;;;;;;3.64;77.93;101194.22;5014460;28;20202;-78
2021/04/12 00:31:57;;;;;;;3.97;2.53;;;;;;;3.62;78.41;101196.91;5015055;28;20245;-78
2021/04/12 00:34:30;;;;;;;4.03;2.27;;;;;;;3.61;78.49;101212.75;5008334;28;20214;-77
2021/04/12 00:37:00;;;;;;;3.67;2.40;;;;;;;3.59;77.65;101196.09;5014577;28;20243;-78
2021/04/12 00:39:36;;;;;;;4.83;2.00;;;;;;;3.56;77.46;101206.75;5013577;28;20207;-78
2021/04/12 00:42:33;;;;;;;4.23;2.33;;;;;;;3.54;77.69;101213.81;5027015;28;20209;-78
2021/04/12 00:45:29;;;;;;;3.37;2.30;;;;;;;3.52;78.38;101210.38;5004623;28;20261;-77
2021/04/12 00:48:10;;;;;;;4.87;1.90;;;;;;;3.48;78.63;101207.78;4995464;28;20227;-78
2021/04/12 00:50:46;;;;;;;3.60;2.00;;;;;;;3.45;77.68;101209.63;4999314;28;20210;-78
2021/04/12 00:53:32;;;;;;;3.27;1.83;;;;;;;3.45;77.99;101220.16;5009428;28;20206;-77
2021/04/12 00:56:02;;;;;;;2.83;2.00;;;;;;;3.43;78.00;101225.47;5030330;28;20202;-77
2021/04/12 00:58:40;;;;;;;2.47;1.93;;;;;;;3.40;78.23;101212.38;5023766;28;20354;-78
2021/04/12 01:01:21;;;;;;;3.10;2.00;;;;;;;3.37;78.44;101212.47;5006630;28;20206;-78
2021/04/12 01:04:04;;;;;;;3.33;2.00;;;;;;;3.36;78.45;101225.69;5012642;28;20210;-78
2021/04/12 01:06:51;;;;;;;3.70;2.27;;;;;;;3.33;77.98;101231.88;5014088;28;20219;-77
2021/04/12 01:09:48;;;;;;;3.33;1.90;;;;;;;3.32;77.67;101226.66;4998941;28;20207;-78
2021/04/12 01:12:53;;;;;;;4.67;1.60;;;;;;;3.30;78.40;101242.47;5009717;28;20214;-78
2021/04/12 01:15:37;;;;;;;2.17;1.40;;;;;;;3.28;77.59;101235.53;5005427;28;20203;-77
2021/04/12 01:18:33;;;;;;;4.53;1.90;;;;;;;3.25;77.86;101238.22;5004027;28;20590;-77
2021/04/12 01:21:31;;;;;;;2.97;1.50;;;;;;;3.22;78.17;101244.44;5009003;28;20681;-78
2021/04/12 01:24:17;;;;;;;2.77;1.90;;;;;;;3.21;77.97;101247.97;5002424;28;20217;-78
2021/04/12 01:27:25;;;;;;;3.37;2.00;;;;;;;3.19;78.04;101251.53;5010433;28;20225;-78
2021/04/12 01:30:24;;;;;;;5.10;2.37;;;;;;;3.19;78.40;101259.44;5021589;28;20600;-78
2021/04/12 01:33:16;;;;;;;4.73;2.30;;;;;;;3.17;77.74;101243.69;5002142;28;20199;-77
2021/04/12 01:36:22;;;;;;;2.47;2.07;;;;;;;3.16;78.52;101259.50;5007328;28;20657;-78
2021/04/12 01:38:57;;;;;;;4.20;2.20;;;;;;;3.14;77.70;101262.16;5012933;28;20222;-78
2021/04/12 01:41:31;;;;;;;3.60;2.40;;;;;;;3.13;78.51;101265.69;5017034;28;20202;-78
2021/04/12 01:44:23;;;;;;;6.07;3.40;;;;;;;3.12;78.21;101256.06;5013288;28;20203;-78
2021/04/12 01:47:04;;;;;;;4.80;2.80;;;;;;;3.10;78.05;101255.25;5009994;28;20235;-78
2021/04/12 01:49:45;;;;;;;3.50;2.47;;;;;;;3.09;78.08;101259.63;5004114;28;20710;-77
2021/04/12 01:52:30;;;;;;;6.13;2.70;;;;;;;3.09;78.62;101266.66;5023931;28;20217;-78
2021/04/12 01:55:14;;;;;;;5.00;2.93;;;;;;;3.08;79.10;101276.31;5025034;28;20205;-78
2021/04/12 01:58:07;;;;;;;4.57;2.70;;;;;;;3.06;78.57;101270.22;5014379;28;20229;-78
2021/04/12 02:00:46;;;;;;;4.03;2.80;;;;;;;3.04;78.33;101279.94;4972858;28;20219;-78
2021/04/12 02:03:26;;;;;;;4.80;2.90;;;;;;;3.03;78.97;101290.50;5008243;28;20202;-77
2021/04/12 02:06:34;;;;;;;7.63;3.60;;;;;;;2.99;78.44;101292.34;5003780;28;20219;-77
2021/04/12 02:09:12;;;;;;;7.80;3.43;;;;;;;2.99;78.96;101299.38;4998437;28;20584;-77
2021/04/12 02:11:50;;;;;;;5.63;3.53;;;;;;;2.99;78.71;101288.84;5011471;28;20202;-78
2021/04/12 02:14:36;;;;;;;4.20;2.90;;;;;;;2.97;79.22;101293.25;5013111;28;20261;-77
2021/04/12 02:17:12;;;;;;;3.33;2.67;;;;;;;2.95;78.72;101300.31;5013253;28;20223;-77
2021/04/12 02:19:50;;;;;;;5.27;3.00;;;;;;;2.94;78.58;101298.59;5011795;28;20209;-77
2021/04/12 02:25:01;;;;;;;4.43;2.97;;;;;;;2.91;78.60;101310.03;5067902;28;20212;-66
2021/04/12 02:27:38;;;;;;;3.87;2.70;;;;;;;2.89;79.23;101321.50;5064580;28;20319;-65
2021/04/12 02:30:15;;;;;;;5.30;2.70;;;;;;;2.87;78.50;101318.88;5059711;28;20217;-66
2021/04/12 02:33:01;;;;;;;2.87;2.43;;;;;;;2.85;78.73;101315.44;5075115;28;20204;-67
2021/04/12 02:35:45;;;;;;;5.73;2.43;;;;;;;2.83;78.67;101314.63;5074493;28;20265;-65
2021/04/12 02:38:29;;;;;;;4.83;2.13;;;;;;;2.82;78.74;101325.16;5108746;22;20227;-65
2021/04/12 02:41:08;;;;;;;3.63;2.20;;;;;;;2.79;78.64;101319.06;5083288;28;20208;-63
2021/04/12 02:43:54;;;;;;;3.93;1.80;;;;;;;2.78;78.82;101337.50;5088710;28;20204;-63
2021/04/12 02:46:48;;;;;;;3.67;2.17;;;;;;;2.76;78.69;101334.91;5093546;28;20240;-65
2021/04/12 02:49:22;;;;;;;4.40;1.83;;;;;;;2.74;78.81;101335.84;5077404;28;20205;-63
2021/04/12 02:52:01;;;;;;;3.33;1.90;;;;;;;2.73;78.74;101344.63;5077082;28;20211;-65
2021/04/12 02:54:41;;;;;;;2.97;2.00;;;;;;;2.72;78.96;101341.13;5085776;28;20204;-64
2021/04/12 02:57:43;;;;;;;3.80;2.20;;;;;;;2.70;78.67;101348.16;5081600;28;20241;-64
2021/04/12 03:00:31;;;;;;;4.13;2.10;;;;;;;2.68;79.04;101347.38;5083733;28;20204;-64
2021/04/12 03:03:22;;;;;;;4.27;2.00;;;;;;;2.68;79.23;101343.88;5082430;28;20204;-64
2021/04/12 03:06:12;;;;;;;5.77;2.90;;;;;;;2.65;78.69;101341.28;5072755;28;20219;-64
2021/04/12 03:09:07;;;;;;;3.97;2.30;;;;;;;2.64;79.02;101340.41;5077730;28;20386;-64
2021/04/12 03:11:49;;;;;;;2.93;2.10;;;;;;;2.62;79.25;101334.31;5078531;28;20736;-62
2021/04/12 03:14:41;;;;;;;3.53;2.00;;;;;;;2.62;78.68;101338.72;5084594;28;20212;-65
2021/04/12 03:17:34;;;;;;;4.50;2.50;;;;;;;2.60;78.80;101338.75;5082612;28;20282;-64
2021/04/12 03:20:19;;;;;;;3.40;2.20;;;;;;;2.59;79.50;101339.63;5079554;28;20213;-63
2021/04/12 03:23:03;;;;;;;2.73;1.93;;;;;;;2.57;78.63;101337.94;5088148;28;20578;-64
2021/04/12 03:25:40;;;;;;;3.80;2.07;;;;;;;2.54;78.70;101333.59;5088057;28;20491;-63
2021/04/12 03:28:29;;;;;;;7.07;2.37;;;;;;;2.54;79.43;101348.50;5083819;28;20232;-64
2021/04/12 03:31:14;;;;;;;3.13;2.17;;;;;;;2.53;79.38;101346.75;5094245;28;20278;-64
2021/04/12 03:33:58;;;;;;;3.87;2.20;;;;;;;2.52;79.34;101356.41;5084547;28;20207;-63
2021/04/12 03:36:33;;;;;;;4.37;2.50;;;;;;;2.52;79.60;101350.28;5090239;28;20196;-64
2021/04/12 03:39:04;;;;;;;3.97;2.23;;;;;;;2.50;79.33;101363.50;5093967;28;20207;-64
2021/04/12 03:42:16;;;;;;;5.07;2.73;;;;;;;2.50;79.33;101376.63;5092542;28;20196;-63
2021/04/12 03:45:17;;;;;;;3.73;2.20;;;;;;;2.49;78.90;101387.19;5084322;28;20214;-64
2021/04/12 03:48:25;;;;;;;4.70;2.30;;;;;;;2.48;78.91;101391.56;5087327;28;20223;-64
2021/04/12 03:51:13;;;;;;;5.27;2.67;;;;;;;2.46;79.39;101380.22;5082973;28;20204;-63
2021/04/12 03:54:15;;;;;;;4.17;2.80;;;;;;;2.47;79.37;101383.72;5089194;28;20201;-64
2021/04/12 03:57:24;;;;;;;3.07;2.70;;;;;;;2.46;79.39;101392.50;5089824;28;20223;-64
2021/04/12 04:00:04;;;;;;;6.57;3.10;;;;;;;2.44;79.23;101395.16;5088176;28;20204;-63
2021/04/12 04:02:43;;;;;;;6.30;3.90;;;;;;;2.44;79.23;101409.16;5089952;28;20208;-65
2021/04/12 04:05:48;;;;;;;8.70;4.50;;;;;;;2.43;78.83;101407.41;5091817;28;20248;-64
2021/04/12 04:08:42;;;;;;;7.13;4.17;;;;;;;2.43;79.00;101409.19;5088850;28;20220;-64
2021/04/12 04:11:46;;;;;;;10.43;5.10;;;;;;;2.42;79.04;101412.69;5090235;28;20219;-65
2021/04/12 04:14:33;;;;;;;17.40;7.20;;;;;;;2.41;79.12;101401.31;5091840;28;20203;-64
2021/04/12 04:17:19;;;;;;;19.37;8.37;;;;;;;2.41;79.49;101413.59;5091910;28;20216;-64
2021/04/12 04:20:01;;;;;;;8.13;4.80;;;;;;;2.39;79.42;101412.75;5090847;28;20753;-64
2021/04/12 04:22:46;;;;;;;6.57;4.20;;;;;;;2.38;79.31;101416.28;5082375;28;20670;-63
2021/04/12 04:25:55;;;;;;;5.47;3.00;;;;;;;2.35;78.99;101418.94;5085529;28;20204;-64
2021/04/12 04:29:05;;;;;;;4.17;3.07;;;;;;;2.33;79.66;101407.63;5083049;28;20223;-62
2021/04/12 04:31:58;;;;;;;5.93;3.73;;;;;;;2.30;79.12;101408.53;5089091;28;20208;-64
2021/04/12 04:34:31;;;;;;;4.37;3.30;;;;;;;2.29;79.56;101405.94;5089904;28;20560;-63
2021/04/12 04:37:07;;;;;;;7.60;3.13;;;;;;;2.29;79.80;101411.19;5090204;28;20228;-60
2021/04/12 04:40:04;;;;;;;3.73;3.30;;;;;;;2.28;79.38;101412.09;5088277;28;20250;-64
2021/04/12 04:42:59;;;;;;;6.80;2.83;;;;;;;2.26;79.65;101421.75;5089033;28;20200;-64
2021/04/12 04:45:39;;;;;;;5.53;3.27;;;;;;;2.25;79.74;101425.28;5086730;28;20212;-63
2021/04/12 04:48:45;;;;;;;4.67;3.10;;;;;;;2.23;79.40;101432.31;5086720;28;20220;-64
2021/04/12 04:51:53;;;;;;;5.40;3.03;;;;;;;2.22;79.52;101438.47;5090311;28;20685;-65
2021/04/12 04:54:42;;;;;;;4.70;3.30;;;;;;;2.20;79.41;101429.72;5042417;28;20204;-63
2021/04/12 04:57:18;;;;;;;4.97;3.13;;;;;;;2.18;79.91;101432.38;5089946;28;20224;-64
2021/04/12 05:00:02;;;;;;;7.47;4.23;;;;;;;2.18;79.65;101426.25;5086507;28;20203;-64
2021/04/12 05:03:05;;;;;;;5.63;3.43;;;;;;;2.18;79.60;101432.38;5088907;28;20218;-64
2021/04/12 05:05:47;;;;;;;5.37;3.97;;;;;;;2.18;79.52;101432.38;5087564;28;20207;-65
2021/04/12 05:09:01;;;;;;;6.17;3.90;;;;;;;2.19;80.04;101431.50;5088620;28;20340;-63
2021/04/12 05:11:36;;;;;;;8.50;5.07;;;;;;;2.21;79.53;101444.59;5087352;28;20211;-64
2021/04/12 05:14:19;;;;;;;6.10;4.30;;;;;;;2.21;79.75;101450.72;5087629;28;20199;-64
2021/04/12 05:17:20;;;;;;;5.57;3.77;;;;;;;2.22;80.08;101448.97;5087780;28;20236;-65
2021/04/12 05:20:00;;;;;;;4.03;3.63;;;;;;;2.21;79.76;101460.38;5087220;28;20200;-63
2021/04/12 05:22:36;;;;;;;6.40;4.00;;;;;;;2.22;80.11;101467.38;5088306;28;20211;-65
2021/04/12 05:25:34;;;;;;;4.93;3.70;;;;;;;2.23;79.85;101469.09;5088171;28;20200;-64
2021/04/12 05:28:36;;;;;;;7.60;4.03;;;;;;;2.24;80.24;101468.22;5068579;28;20638;-64
2021/04/12 05:31:34;;;;;;;6.30;3.60;;;;;;;2.27;79.91;101486.56;5080396;28;20211;-64
2021/04/12 05:34:21;;;;;;;7.73;4.20;;;;;;;2.29;80.41;101483.03;5090546;28;20204;-65
2021/04/12 05:37:05;;;;;;;7.53;3.67;;;;;;;2.30;80.44;101492.66;5082237;28;20228;-64
2021/04/12 05:39:52;;;;;;;5.13;4.33;;;;;;;2.32;80.12;101500.50;5083660;28;20216;-65
2021/04/12 05:42:37;;;;;;;6.33;3.70;;;;;;;2.36;80.66;101507.44;5090228;28;20236;-65
2021/04/12 05:45:15;;;;;;;6.47;4.07;;;;;;;2.37;80.50;101503.91;5074822;28;20584;-64
2021/04/12 05:48:03;;;;;;;5.97;3.40;;;;;;;2.41;80.29;101510.88;5077231;28;20267;-66
2021/04/12 05:51:02;;;;;;;4.87;3.70;;;;;;;2.42;80.39;101510.84;5082890;28;20200;-65
2021/04/12 05:53:53;;;;;;;8.60;4.07;;;;;;;2.44;80.27;101529.22;5078392;28;20208;-63
2021/04/12 05:56:31;;;;;;;5.13;3.77;;;;;;;2.45;80.49;101523.06;5080708;28;20588;-63
2021/04/12 05:59:13;;;;;;;7.70;4.27;;;;;;;2.47;80.08;101520.44;5092023;28;20211;-64
2021/04/12 06:02:04;;;;;;;5.53;3.50;;;;;;;2.48;80.47;101527.44;5081541;28;20204;-63
2021/04/12 06:04:37;;;;;;;5.67;4.53;;;;;;;2.50;80.51;101537.03;5084662;28;20200;-62
2021/04/12 06:07:32;;;;;;;5.33;3.83;;;;;;;2.53;80.05;101538.72;5084970;28;20227;-65
2021/04/12 06:10:26;;;;;;;5.10;3.73;;;;;;;2.56;80.54;101551.81;5084271;28;20216;-63
2021/04/12 06:13:08;;;;;;;7.40;4.30;;;;;;;2.58;80.64;101547.41;5085909;28;20698;-66
2021/04/12 06:15:51;;;;;;;5.87;3.80;;;;;;;2.60;80.57;101549.13;5083257;28;20200;-66
2021/04/12 06:18:41;;;;;;;6.97;3.60;;;;;;;2.64;80.53;101542.94;5084448;28;20673;-63
2021/04/12 06:21:26;;;;;;;5.80;3.93;;;;;;;2.68;80.50;101547.25;5082898;28;20204;-65
2021/04/12 06:24:09;;;;;;;5.77;3.43;;;;;;;2.73;80.49;101555.91;5088831;28;20220;-64
2021/04/12 06:26:57;;;;;;;4.77;3.43;;;;;;;2.77;80.17;101552.34;5081020;28;20693;-63
2021/04/12 06:30:00;;;;;;;6.47;3.13;;;;;;;2.81;79.98;101552.28;5086350;28;20211;-64
2021/04/12 06:33:10;;;;;;;4.57;3.47;;;;;;;2.83;79.74;101550.50;5079205;28;20242;-65
2021/04/12 06:36:08;;;;;;;5.50;3.00;;;;;;;2.84;80.27;101554.88;5085218;28;20204;-64
2021/04/12 06:39:10;;;;;;;9.57;3.47;;;;;;;2.85;79.59;101551.34;5080176;28;20261;-64
2021/04/12 06:42:24;;;;;;;6.53;3.07;;;;;;;2.88;80.06;101554.78;5075721;28;20195;-63
2021/04/12 06:45:29;;;;;;;4.93;3.13;;;;;;;2.92;80.00;101558.22;5088360;28;20208;-64
2021/04/12 06:48:49;;;;;;;6.20;4.00;;;;;;;2.95;79.81;101572.19;5080125;28;20247;-63
2021/04/12 06:51:40;;;;;;;4.60;3.17;;;;;;;3.00;80.05;101578.25;5076410;28;20217;-64
2021/04/12 06:54:41;;;;;;;3.47;3.00;;;;;;;3.07;79.94;101579.00;5090400;28;20673;-64
2021/04/12 06:58:13;;;;;;;5.93;2.77;;;;;;;3.14;79.76;101578.00;5072686;28;20231;-64
2021/04/12 07:01:15;;;;;;;5.70;3.20;;;;;;;3.22;79.58;101584.03;5073967;28;20223;-64
2021/04/12 07:04:30;;;;;;;8.73;5.70;;;;;;;3.30;79.70;101584.72;5091035;28;20291;-64
2021/04/12 07:07:34;;;;;;;6.00;4.07;;;;;;;3.36;79.11;101597.78;5013976;28;20256;-64
2021/04/12 07:10:48;;;;;;;7.40;4.20;;;;;;;3.44;79.44;101600.25;5075409;28;20204;-64
2021/04/12 07:13:33;;;;;;;5.53;4.10;;;;;;;3.50;78.94;101602.78;5077792;28;20196;-64
2021/04/12 07:16:40;;;;;;;5.63;3.33;;;;;;;3.54;78.09;101607.09;5082721;28;20227;-65
2021/04/12 07:19:44;;;;;;;4.43;3.63;;;;;;;3.56;78.13;101609.72;5090539;28;20208;-65
2021/04/12 07:22:57;;;;;;;6.37;3.87;;;;;;;3.62;77.91;101606.94;5083443;28;20200;-65
2021/04/12 07:25:58;;;;;;;4.47;3.80;;;;;;;3.73;77.81;101610.25;5085679;28;20602;-65
2021/04/12 07:29:01;;;;;;;4.57;3.63;;;;;;;3.84;78.12;101606.50;5078202;28;20268;-63
2021/04/12 07:32:09;;;;;;;4.30;3.30;;;;;;;4.00;78.44;101614.06;5088953;28;20261;-65
2021/04/12 07:35:22;;;;;;;5.47;3.60;;;;;;;4.15;77.49;101614.63;5080019;28;20196;-66
2021/04/12 07:38:25;;;;;;;3.90;2.97;;;;;;;4.26;77.88;101616.16;5086159;28;20219;-65
2021/04/12 07:41:36;;;;;;;4.27;3.27;;;;;;;4.38;77.39;101613.25;5080036;28;20301;-63
2021/04/12 07:44:53;;;;;;;4.67;3.10;;;;;;;4.47;76.70;101611.28;5077426;28;20269;-66
2021/04/12 07:48:11;;;;;;;4.30;3.10;;;;;;;4.57;76.16;101614.56;5080831;28;20231;-64
2021/04/12 07:51:26;;;;;;;7.80;3.43;;;;;;;4.69;76.49;101616.03;5078890;28;20744;-65
2021/04/12 07:54:24;;;;;;;4.10;2.70;;;;;;;4.76;75.51;101612.38;5017599;28;20261;-65
2021/04/12 07:57:23;;;;;;;7.37;3.40;;;;;;;4.83;75.80;101619.25;5089398;28;20227;-64
2021/04/12 08:00:28;;;;;;;4.50;2.30;;;;;;;4.87;75.21;101621.75;5079095;28;20205;-66
2021/04/12 08:03:38;;;;;;;4.63;1.90;;;;;;;4.98;75.00;101629.41;5084473;28;20208;-63
2021/04/12 08:06:38;;;;;;;4.57;2.43;;;;;;;5.13;74.65;101629.03;5089921;28;20205;-64
2021/04/12 08:09:30;;;;;;;10.33;3.00;;;;;;;5.29;74.48;101636.56;5086518;28;20209;-65
2021/04/12 08:12:44;;;;;;;3.53;2.00;;;;;;;5.47;73.75;101638.72;5084292;28;20213;-65
2021/04/12 08:16:00;;;;;;;3.83;1.80;;;;;;;5.67;73.37;101644.34;5074490;28;20236;-64
2021/04/12 08:18:53;;;;;;;3.03;2.30;;;;;;;5.85;72.71;101645.59;5075054;28;20244;-65
2021/04/12 08:21:52;;;;;;;7.53;2.47;;;;;;;6.02;72.21;101643.38;5080734;28;20230;-66
2021/04/12 08:24:40;;;;;;;4.80;2.03;;;;;;;6.18;71.77;101647.31;5092072;28;20217;-66
2021/04/12 08:27:54;;;;;;;3.00;2.00;;;;;;;6.28;70.32;101646.13;5089420;28;20454;-66
2021/04/12 08:31:23;;;;;;;2.90;1.77;;;;;;;6.42;69.53;101642.22;5077584;28;20201;-66
2021/04/12 08:34:36;;;;;;;3.30;1.90;;;;;;;6.49;68.60;101636.66;5077127;28;20650;-66
2021/04/12 08:37:50;;;;;;;3.10;2.13;;;;;;;6.59;67.63;101645.22;5091533;22;20228;-78
2021/04/12 08:40:45;;;;;;;3.87;1.77;;;;;;;6.68;66.94;101652.84;5085582;28;20196;-78
2021/04/12 08:43:41;;;;;;;3.73;1.50;;;;;;;6.70;65.76;101658.97;5087448;28;20224;-79
2021/04/12 08:46:38;;;;;;;2.93;2.07;;;;;;;6.79;65.14;101658.69;5063559;28;20295;-79
2021/04/12 08:49:49;;;;;;;2.90;1.30;;;;;;;6.96;64.75;101651.06;5077656;28;20201;-80
2021/04/12 08:52:41;;;;;;;4.77;1.40;;;;;;;7.14;64.35;101656.69;5059291;28;20212;-79
2021/04/12 08:55:51;;;;;;;2.10;1.33;;;;;;;7.29;63.47;101659.69;5077392;28;20205;-79
2021/04/12 08:58:56;;;;;;;2.30;1.07;;;;;;;7.37;63.20;101664.72;5071303;28;20228;-79
2021/04/12 09:01:46;;;;;;;4.77;1.70;;;;;;;7.38;62.54;101663.78;5078251;28;20201;-80
2021/04/12 09:04:48;;;;;;;4.07;1.67;;;;;;;7.38;62.50;101678.81;5073607;28;20216;-80
2021/04/12 09:07:46;;;;;;;2.97;1.57;;;;;;;7.33;62.18;101673.69;5033748;28;20238;-79
2021/04/12 09:10:46;;;;;;;5.13;1.60;;;;;;;7.33;61.65;101673.69;5072288;28;20249;-79
2021/04/12 09:13:40;;;;;;;5.90;1.30;;;;;;;7.38;61.34;101676.19;5069425;28;20229;-78
2021/04/12 09:16:16;;;;;;;3.33;1.40;;;;;;;7.45;61.38;101686.53;5073896;28;20223;-79
2021/04/12 09:19:18;;;;;;;3.67;1.20;;;;;;;7.56;60.24;101671.13;5076247;28;20212;-79
2021/04/12 09:22:14;;;;;;;4.33;1.07;;;;;;;7.75;60.55;101673.13;5072786;28;20219;-79
2021/04/12 09:24:56;;;;;;;3.40;1.07;;;;;;;7.81;59.95;101673.78;5069117;28;20204;-79
2021/04/12 09:27:42;;;;;;;3.47;1.37;;;;;;;7.79;58.79;101674.75;5066650;28;20263;-79
2021/04/12 09:30:33;;;;;;;2.07;0.87;;;;;;;7.76;59.12;101672.19;5071245;28;20201;-79
2021/04/12 09:33:37;;;;;;;4.27;0.70;;;;;;;7.70;58.28;101680.41;5071799;28;20347;-79
2021/04/12 09:36:13;;;;;;;2.37;0.87;;;;;;;7.65;57.29;101680.53;5073969;28;20243;-79
2021/04/12 09:39:09;;;;;;;2.20;0.90;;;;;;;7.62;57.44;101689.47;5068747;28;20346;-79
2021/04/12 09:42:08;;;;;;;2.13;0.90;;;;;;;7.61;57.75;101690.38;5074313;28;20625;-79
2021/04/12 09:45:15;;;;;;;2.93;1.03;;;;;;;7.60;57.31;101693.09;5075865;28;20290;-79
2021/04/12 09:48:14;;;;;;;1.60;0.63;;;;;;;7.60;57.07;101699.25;5074953;28;20232;-79
2021/04/12 09:51:13;;;;;;;0.47;0.30;;;;;;;7.59;55.78;101694.88;5074377;28;20209;-80
2021/04/12 09:54:33;;;;;;;2.77;0.80;;;;;;;7.68;56.14;101687.53;5072015;28;20217;-78
2021/04/12 09:57:29;;;;;;;1.27;0.60;;;;;;;7.88;56.04;101695.66;5069688;28;20218;-78
2021/04/12 10:00:08;;;;;;;2.40;1.07;;;;;;;8.09;55.52;101699.31;5022985;28;20594;-78
2021/04/12 10:02:58;;;;;;;3.53;0.90;;;;;;;8.16;53.89;101701.69;5074561;28;20312;-78
2021/04/12 10:06:11;;;;;;;1.83;0.70;;;;;;;8.12;53.34;101717.78;5075786;28;20650;-78
2021/04/12 10:08:41;;;;;;;2.03;0.70;;;;;;;8.05;52.36;101708.31;4992940;28;20290;-79
2021/04/12 10:11:11;;;;;;;2.10;0.80;;;;;;;7.99;52.86;101707.59;5066638;28;20205;-79
2021/04/12 10:13:44;;;;;;;3.03;0.67;;;;;;;7.99;53.02;101720.00;5066390;28;20225;-78
2021/04/12 10:16:25;;;;;;;5.77;0.90;;;;;;;7.97;53.05;101711.22;5074912;28;20212;-78
2021/04/12 10:19:04;;;;;;;1.77;0.70;;;;;;;7.93;53.57;101715.78;5067545;28;20239;-78
2021/04/12 10:21:40;;;;;;;4.77;1.20;;;;;;;7.87;53.82;101723.97;5072880;28;20201;-79
2021/04/12 10:24:16;;;;;;;3.43;0.80;;;;;;;7.84;53.45;101721.41;5069643;28;20228;-78
2021/04/12 10:26:49;;;;;;;1.83;0.70;;;;;;;7.84;53.24;101717.91;5071209;28;20230;-79
2021/04/12 10:29:28;;;;;;;2.23;0.90;;;;;;;7.83;53.54;101716.16;5068625;28;20202;-78
2021/04/12 10:32:01;;;;;;;1.53;0.70;;;;;;;7.85;52.90;101711.69;5068714;28;20212;-79
2021/04/12 10:34:29;;;;;;;2.17;1.07;;;;;;;7.94;53.17;101711.34;5064199;28;20236;-79
2021/04/12 10:37:05;;;;;;;2.50;0.80;;;;;;;8.11;52.92;101702.75;5075681;28;20208;-79
2021/04/12 10:39:46;;;;;;;1.63;0.87;;;;;;;8.25;52.50;101709.28;5074914;28;20288;-79
2021/04/12 10:42:25;;;;;;;2.07;0.83;;;;;;;8.40;52.85;101709.72;5071649;28;20205;-80
2021/04/12 10:44:59;;;;;;;3.47;1.10;;;;;;;8.42;52.69;101703.38;5074196;28;20199;-79
2021/04/12 10:47:34;;;;;;;3.07;1.00;;;;;;;8.45;52.29;101710.38;5076012;28;20212;-79
2021/04/12 10:50:08;;;;;;;2.50;1.07;;;;;;;8.52;53.50;101707.44;5073804;28;20559;-78
2021/04/12 10:52:57;;;;;;;2.27;0.83;;;;;;;8.56;52.86;101695.78;5074529;28;20251;-78
2021/04/12 10:55:30;;;;;;;3.13;1.03;;;;;;;8.62;53.21;101705.28;5071282;28;20205;-78
2021/04/12 10:58:20;;;;;;;2.57;1.37;;;;;;;8.74;53.17;101710.16;5066939;28;20213;-79
2021/04/12 11:00:55;;;;;;;2.03;1.00;;;;;;;8.83;53.04;101711.56;5072072;28;20201;-79
2021/04/12 11:03:49;;;;;;;3.90;0.87;;;;;;;8.90;52.46;101711.28;5063622;28;20226;-79
2021/04/12 11:06:49;;;;;;;3.43;0.87;;;;;;;8.96;52.47;101711.00;5067983;28;20208;-78
2021/04/12 11:09:38;;;;;;;1.10;0.60;;;;;;;9.10;51.91;101705.16;5062692;28;20233;-82
2021/04/12 11:12:12;;;;;;;2.63;0.80;;;;;;;9.18;52.03;101691.56;5070478;28;20222;-83
2021/04/12 11:14:49;;;;;;;1.73;0.87;;;;;;;9.26;52.04;101697.44;5072740;28;20209;-82
2021/04/12 11:17:28;;;;;;;2.43;0.80;;;;;;;9.37;51.65;101692.53;5070854;28;20205;-83
2021/04/12 11:20:06;;;;;;;1.43;0.90;;;;;;;9.47;50.70;101691.22;5066957;28;20288;-83
2021/04/12 11:22:51;;;;;;;1.63;0.83;;;;;;;9.51;50.33;101703.44;5069466;28;20235;-83
2021/04/12 11:25:22;;;;;;;2.37;1.17;;;;;;;9.46;48.68;101708.09;5070372;28;20209;-83
2021/04/12 11:28:03;;;;;;;2.57;0.90;;;;;;;9.40;48.44;101705.69;5074663;28;20240;-83
2021/04/12 11:30:38;;;;;;;2.67;0.73;;;;;;;9.35;48.11;101705.00;5071324;28;20634;-83
2021/04/12 11:33:31;;;;;;;1.13;0.50;;;;;;;9.34;48.15;101705.94;5070397;28;20240;-83
2021/04/12 11:36:10;;;;;;;2.23;0.70;;;;;;;9.36;47.92;101706.75;5065512;28;20236;-83
2021/04/12 11:38:42;;;;;;;3.67;1.00;;;;;;;9.37;48.16;101705.81;5075655;28;20212;-83
2021/04/12 11:41:13;;;;;;;2.60;0.90;;;;;;;9.39;47.96;101703.97;5079134;28;20215;-83
2021/04/12 11:43:44;;;;;;;1.30;0.70;;;;;;;9.46;48.75;101710.78;5079998;28;20285;-83
2021/04/12 11:46:19;;;;;;;3.27;1.07;;;;;;;9.57;48.60;101705.84;5080688;28;20211;-83
2021/04/12 11:48:50;;;;;;;1.97;0.80;;;;;;;9.66;48.42;101708.13;5077956;28;20204;-83
2021/04/12 11:51:34;;;;;;;2.50;0.60;;;;;;;9.72;48.46;101709.66;5074365;28;20205;-82
2021/04/12 11:54:04;;;;;;;2.97;0.70;;;;;;;9.81;47.86;101713.72;5079631;28;20220;-83
2021/04/12 11:56:43;;;;;;;2.17;0.80;;;;;;;9.86;47.81;101711.69;5075794;28;20201;-83
2021/04/12 11:59:19;;;;;;;2.00;1.30;;;;;;;9.94;47.47;101707.78;5075001;28;20291;-82
2021/04/12 12:01:51;;;;;;;3.10;0.73;;;;;;;9.96;46.67;101710.38;5079607;28;20212;-83
2021/04/12 12:04:39;;;;;;;2.87;0.70;;;;;;;9.91;46.74;101710.56;5073935;28;20220;-84
2021/04/12 12:07:17;;;;;;;2.80;0.80;;;;;;;9.86;46.13;101706.38;5075439;28;20223;-82
2021/04/12 12:09:48;;;;;;;1.27;0.80;;;;;;;9.86;46.17;101717.03;5078473;28;20197;-82
2021/04/12 12:12:34;;;;;;;1.83;0.90;;;;;;;9.93;46.31;101715.84;5064860;28;20261;-84
2021/04/12 12:15:10;;;;;;;1.33;0.70;;;;;;;10.02;46.24;101716.31;5078962;28;20287;-83
2021/04/12 12:17:40;;;;;;;2.00;0.90;;;;;;;10.14;45.96;101714.91;5076510;28;20197;-82
2021/04/12 12:20:15;;;;;;;1.67;0.60;;;;;;;10.27;45.76;101716.09;5078700;28;20213;-83
2021/04/12 12:22:51;;;;;;;2.17;1.00;;;;;;;10.31;44.93;101717.69;5078271;28;20224;-83
2021/04/12 12:25:29;;;;;;;2.30;0.60;;;;;;;10.35;44.46;101715.78;5073131;28;20547;-83
2021/04/12 12:28:01;;;;;;;2.63;0.70;;;;;;;10.43;44.60;101727.78;5071575;28;20217;-82
2021/04/12 12:30:33;;;;;;;1.10;0.50;;;;;;;10.47;43.12;101725.84;5075529;28;20197;-83
2021/04/12 12:33:08;;;;;;;1.93;1.30;;;;;;;10.46;42.94;101716.13;5072329;28;20588;-83
2021/04/12 12:35:41;;;;;;;3.07;1.10;;;;;;;10.47;42.39;101717.00;5078406;28;20214;-83
2021/04/12 12:38:38;;;;;;;0.90;0.50;;;;;;;10.44;41.85;101716.19;5058259;28;20209;-83
2021/04/12 12:41:13;;;;;;;1.60;0.70;;;;;;;10.40;41.72;101713.75;5067815;28;20212;-82
2021/04/12 12:43:40;;;;;;;2.30;0.90;;;;;;;10.40;43.53;101727.06;5076688;28;20227;-83
2021/04/12 12:46:09;;;;;;;4.87;0.83;;;;;;;10.40;43.79;101719.06;5067970;28;20209;-82
2021/04/12 12:48:42;;;;;;;2.50;0.80;;;;;;;10.31;44.81;101728.34;5071616;28;20220;-82
2021/04/12 12:51:14;;;;;;;1.73;0.87;;;;;;;10.22;45.87;101731.41;5070178;28;20243;-83
2021/04/12 12:53:44;;;;;;;2.33;0.70;;;;;;;10.09;45.46;101735.53;5076094;28;20311;-83
2021/04/12 12:56:28;;;;;;;1.80;0.70;;;;;;;9.88;45.75;101732.00;5077570;28;20646;-82
2021/04/12 12:59:01;;;;;;;2.30;1.00;;;;;;;9.69;46.16;101736.38;5077961;28;20227;-82
2021/04/12 13:01:34;;;;;;;1.30;0.50;;;;;;;9.46;45.67;101745.34;5079073;28;20201;-82
2021/04/12 13:04:11;;;;;;;2.30;0.40;;;;;;;9.29;46.00;101761.09;5078556;28;20228;-83
2021/04/12 13:06:38;;;;;;;1.37;0.70;;;;;;;9.09;46.13;101761.03;5079567;28;20531;-82
2021/04/12 13:09:20;;;;;;;1.47;0.30;;;;;;;8.94;46.80;101767.81;5079900;28;20212;-82
2021/04/12 13:11:49;;;;;;;1.57;0.40;;;;;;;8.80;46.94;101778.94;5078690;28;20636;-82